Terminal Aerodrome Forecast
Issued by NWS

Home | Current Version | Previous Version | Text Only | Print | Product List | Glossary On
Versions: 1 2 3 4 5 6 7 8 9 10 11 12 13 14 15 16 17
000
FTAK31 PAFA 271726
TAFAOT
TAF
PAOT 271726Z 2718/2818 03008KT P6SM SCT120
     FM272200 30006KT P6SM SCT120
     FM280100 07005KT P6SM SKC=

USA.gov is the U.S. government's official web portal to all federal, state and local government web resources and services.